Current Conditions
Clear
Conditions



Pressure
1015.92 (hPa) - 30 (inHG)
Visibility

10.0 (km) - 6.2 (miles)
   Temperature
13  °C
55°F
12  °C
Dewpoint
94  %
 Humidity
   Wind Speed
3  km/h
2  kts
2  mph
0.9  m/s
   Wind Direction
 340°
North North
West
   Airport Data
YMEN
Location Melbourne Essendon 7 km (4.35 mi)
Metar :YMEN 301800Z AUTO 34002KT 9999 // NCD 13/12 Q1016
Tue 31st March 05:00 am
   Raw Metar Info
Raw METAR is the most common format in the world for the transmission of observational weather data. It is highly standardized through the International Civil Aviation Organization (ICAO), which allows it to be understood throughout most of the world.
   API Info
Data Provided by
https://www.checkwx.com/weather/YMEN
   © Info
CSS/SVG/PHP scripts were developed by weather34.com for use in the weather34 template © 2015-2020

Guide Info provided by Metar-Wikipedia